sensor_id;sensor_type;location;lat;lon;timestamp;pressure;altitude;pressure_sealevel;temperature;humidity
82035;BME280;71599;49.892;18.914;2024-02-15T00:00:17;99179.53;;;6.81;93.15
82035;BME280;71599;49.892;18.914;2024-02-15T00:05:38;99178.75;;;6.80;94.36
82035;BME280;71599;49.892;18.914;2024-02-15T00:10:39;99186.41;;;6.78;95.42
82035;BME280;71599;49.892;18.914;2024-02-15T00:15:41;99182.44;;;6.76;96.14
82035;BME280;71599;49.892;18.914;2024-02-15T00:20:42;99187.25;;;6.70;97.32
82035;BME280;71599;49.892;18.914;2024-02-15T00:25:43;99193.81;;;6.69;97.78
82035;BME280;71599;49.892;18.914;2024-02-15T00:30:45;99189.16;;;6.70;98.60
82035;BME280;71599;49.892;18.914;2024-02-15T00:35:46;99207.06;;;6.71;98.64
82035;BME280;71599;49.892;18.914;2024-02-15T00:40:47;99205.28;;;6.66;99.40
82035;BME280;71599;49.892;18.914;2024-02-15T00:45:49;99208.34;;;6.65;100.00
82035;BME280;71599;49.892;18.914;2024-02-15T00:50:50;99216.69;;;6.60;100.00
82035;BME280;71599;49.892;18.914;2024-02-15T00:55:51;99218.75;;;6.54;100.00
82035;BME280;71599;49.892;18.914;2024-02-15T01:00:53;99219.25;;;6.47;100.00
82035;BME280;71599;49.892;18.914;2024-02-15T01:05:54;99219.88;;;6.44;100.00
82035;BME280;71599;49.892;18.914;2024-02-15T01:10:55;99223.72;;;6.43;100.00
82035;BME280;71599;49.892;18.914;2024-02-15T01:15:58;99215.41;;;6.48;100.00
82035;BME280;71599;49.892;18.914;2024-02-15T01:20:58;99220.81;;;6.57;100.00
82035;BME280;71599;49.892;18.914;2024-02-15T01:25:59;99216.19;;;6.58;100.00
82035;BME280;71599;49.892;18.914;2024-02-15T01:31:02;99212.53;;;6.53;100.00
82035;BME280;71599;49.892;18.914;2024-02-15T01:36:03;99205.97;;;6.54;100.00
82035;BME280;71599;49.892;18.914;2024-02-15T01:41:04;99206.31;;;6.53;100.00
82035;BME280;71599;49.892;18.914;2024-02-15T01:46:09;99195.91;;;6.55;100.00
82035;BME280;71599;49.892;18.914;2024-02-15T01:51:11;99189.84;;;6.58;100.00
82035;BME280;71599;49.892;18.914;2024-02-15T01:56:14;99181.38;;;6.60;100.00
82035;BME280;71599;49.892;18.914;2024-02-15T02:01:17;99178.00;;;6.63;100.00
82035;BME280;71599;49.892;18.914;2024-02-15T02:06:18;99183.44;;;6.63;100.00
82035;BME280;71599;49.892;18.914;2024-02-15T02:11:20;99191.25;;;6.64;100.00
82035;BME280;71599;49.892;18.914;2024-02-15T02:16:29;99183.75;;;6.70;100.00
82035;BME280;71599;49.892;18.914;2024-02-15T02:21:30;99174.44;;;6.79;100.00
82035;BME280;71599;49.892;18.914;2024-02-15T02:26:33;99186.41;;;6.87;99.88
82035;BME280;71599;49.892;18.914;2024-02-15T02:31:35;99189.28;;;6.82;99.49
82035;BME280;71599;49.892;18.914;2024-02-15T02:36:36;99177.94;;;6.80;100.00
82035;BME280;71599;49.892;18.914;2024-02-15T02:41:38;99170.91;;;6.79;100.00
82035;BME280;71599;49.892;18.914;2024-02-15T02:46:41;99161.47;;;6.85;99.06
82035;BME280;71599;49.892;18.914;2024-02-15T02:51:42;99163.44;;;6.76;99.09
82035;BME280;71599;49.892;18.914;2024-02-15T02:56:44;99167.13;;;6.71;100.00
82035;BME280;71599;49.892;18.914;2024-02-15T03:01:45;99159.25;;;6.78;99.62
82035;BME280;71599;49.892;18.914;2024-02-15T03:06:46;99163.72;;;6.83;99.02
82035;BME280;71599;49.892;18.914;2024-02-15T03:11:49;99164.97;;;6.85;98.67
82035;BME280;71599;49.892;18.914;2024-02-15T03:16:49;99163.53;;;6.88;98.31
82035;BME280;71599;49.892;18.914;2024-02-15T03:21:50;99153.16;;;6.90;97.75
82035;BME280;71599;49.892;18.914;2024-02-15T03:26:53;99154.91;;;6.86;97.66
82035;BME280;71599;49.892;18.914;2024-02-15T03:31:54;99155.56;;;6.83;98.03
82035;BME280;71599;49.892;18.914;2024-02-15T03:36:54;99153.19;;;6.81;98.00
82035;BME280;71599;49.892;18.914;2024-02-15T03:41:57;99145.34;;;6.80;98.38
82035;BME280;71599;49.892;18.914;2024-02-15T03:46:58;99144.41;;;6.76;98.87
82035;BME280;71599;49.892;18.914;2024-02-15T03:51:58;99157.06;;;6.72;98.55
82035;BME280;71599;49.892;18.914;2024-02-15T03:57:01;99145.09;;;6.64;98.84
82035;BME280;71599;49.892;18.914;2024-02-15T04:02:02;99146.69;;;6.65;99.41
82035;BME280;71599;49.892;18.914;2024-02-15T04:07:03;99152.28;;;6.60;99.03
82035;BME280;71599;49.892;18.914;2024-02-15T04:12:06;99163.34;;;6.46;100.00
82035;BME280;71599;49.892;18.914;2024-02-15T04:17:07;99162.88;;;6.36;100.00
82035;BME280;71599;49.892;18.914;2024-02-15T04:22:08;99156.50;;;6.32;100.00
82035;BME280;71599;49.892;18.914;2024-02-15T04:27:11;99154.91;;;6.31;100.00
82035;BME280;71599;49.892;18.914;2024-02-15T04:32:12;99155.69;;;6.31;100.00
82035;BME280;71599;49.892;18.914;2024-02-15T04:37:13;99163.34;;;6.29;100.00
82035;BME280;71599;49.892;18.914;2024-02-15T04:42:16;99164.16;;;6.21;100.00
82035;BME280;71599;49.892;18.914;2024-02-15T04:47:16;99159.22;;;6.23;100.00
82035;BME280;71599;49.892;18.914;2024-02-15T04:52:17;99152.63;;;6.24;100.00
82035;BME280;71599;49.892;18.914;2024-02-15T04:57:20;99166.69;;;6.18;100.00
82035;BME280;71599;49.892;18.914;2024-02-15T05:02:21;99170.69;;;6.20;100.00
82035;BME280;71599;49.892;18.914;2024-02-15T05:07:22;99176.59;;;6.13;100.00
82035;BME280;71599;49.892;18.914;2024-02-15T05:12:24;99182.97;;;6.00;100.00
82035;BME280;71599;49.892;18.914;2024-02-15T05:17:25;99190.00;;;6.01;100.00
82035;BME280;71599;49.892;18.914;2024-02-15T05:22:26;99205.50;;;6.01;100.00
82035;BME280;71599;49.892;18.914;2024-02-15T05:27:29;99198.94;;;6.02;100.00
82035;BME280;71599;49.892;18.914;2024-02-15T05:32:30;99198.34;;;6.05;100.00
82035;BME280;71599;49.892;18.914;2024-02-15T05:37:31;99193.03;;;6.00;100.00
82035;BME280;71599;49.892;18.914;2024-02-15T05:42:33;99201.47;;;5.64;100.00
82035;BME280;71599;49.892;18.914;2024-02-15T05:47:34;99209.06;;;5.45;100.00
82035;BME280;71599;49.892;18.914;2024-02-15T05:52:35;99205.25;;;5.46;100.00
82035;BME280;71599;49.892;18.914;2024-02-15T05:57:37;99209.91;;;5.62;100.00
82035;BME280;71599;49.892;18.914;2024-02-15T06:02:38;99216.63;;;5.65;100.00
82035;BME280;71599;49.892;18.914;2024-02-15T06:07:39;99228.75;;;5.67;100.00
82035;BME280;71599;49.892;18.914;2024-02-15T06:12:41;99230.31;;;5.68;100.00
82035;BME280;71599;49.892;18.914;2024-02-15T06:17:43;99236.25;;;5.70;100.00
82035;BME280;71599;49.892;18.914;2024-02-15T06:22:44;99236.09;;;5.75;100.00
82035;BME280;71599;49.892;18.914;2024-02-15T06:27:46;99240.25;;;5.82;100.00
82035;BME280;71599;49.892;18.914;2024-02-15T06:32:47;99245.84;;;5.85;100.00
82035;BME280;71599;49.892;18.914;2024-02-15T06:37:48;99249.19;;;5.82;100.00
82035;BME280;71599;49.892;18.914;2024-02-15T06:42:50;99250.16;;;5.86;100.00
82035;BME280;71599;49.892;18.914;2024-02-15T06:47:51;99251.28;;;5.85;100.00
82035;BME280;71599;49.892;18.914;2024-02-15T06:52:52;99251.72;;;5.70;100.00
82035;BME280;71599;49.892;18.914;2024-02-15T06:57:55;99250.44;;;5.67;100.00
82035;BME280;71599;49.892;18.914;2024-02-15T07:02:55;99246.50;;;5.91;100.00
82035;BME280;71599;49.892;18.914;2024-02-15T07:07:57;99258.16;;;6.08;100.00
82035;BME280;71599;49.892;18.914;2024-02-15T07:12:59;99259.44;;;6.20;100.00
82035;BME280;71599;49.892;18.914;2024-02-15T07:18:00;99259.13;;;6.30;100.00
82035;BME280;71599;49.892;18.914;2024-02-15T07:23:01;99257.41;;;6.42;100.00
82035;BME280;71599;49.892;18.914;2024-02-15T07:28:04;99259.81;;;6.52;100.00
82035;BME280;71599;49.892;18.914;2024-02-15T07:33:05;99254.03;;;6.71;100.00
82035;BME280;71599;49.892;18.914;2024-02-15T07:38:06;99258.16;;;6.86;100.00
82035;BME280;71599;49.892;18.914;2024-02-15T07:43:09;99251.59;;;6.95;100.00
82035;BME280;71599;49.892;18.914;2024-02-15T07:48:10;99255.38;;;7.03;100.00
82035;BME280;71599;49.892;18.914;2024-02-15T07:53:11;99251.53;;;7.13;100.00
82035;BME280;71599;49.892;18.914;2024-02-15T07:58:13;99253.09;;;7.22;100.00
82035;BME280;71599;49.892;18.914;2024-02-15T08:03:14;99250.97;;;7.36;100.00
82035;BME280;71599;49.892;18.914;2024-02-15T08:08:15;99253.94;;;7.52;100.00
82035;BME280;71599;49.892;18.914;2024-02-15T08:13:17;99245.22;;;7.67;100.00
82035;BME280;71599;49.892;18.914;2024-02-15T08:18:18;99246.91;;;7.81;100.00
82035;BME280;71599;49.892;18.914;2024-02-15T08:23:19;99245.44;;;7.83;99.63
82035;BME280;71599;49.892;18.914;2024-02-15T08:28:21;99238.69;;;7.60;100.00
82035;BME280;71599;49.892;18.914;2024-02-15T08:33:23;99235.03;;;7.26;100.00
82035;BME280;71599;49.892;18.914;2024-02-15T08:38:24;99230.50;;;7.89;100.00
82035;BME280;71599;49.892;18.914;2024-02-15T08:43:26;99233.44;;;8.67;100.00
82035;BME280;71599;49.892;18.914;2024-02-15T08:48:27;99214.94;;;9.54;95.87
82035;BME280;71599;49.892;18.914;2024-02-15T08:53:28;99197.50;;;10.07;88.51
82035;BME280;71599;49.892;18.914;2024-02-15T08:58:31;99208.94;;;10.96;83.93
82035;BME280;71599;49.892;18.914;2024-02-15T09:03:31;99207.91;;;11.32;80.61
82035;BME280;71599;49.892;18.914;2024-02-15T09:08:32;99213.81;;;10.59;77.94
82035;BME280;71599;49.892;18.914;2024-02-15T09:13:35;99200.69;;;10.37;78.88
82035;BME280;71599;49.892;18.914;2024-02-15T09:18:35;99212.97;;;10.43;76.85
82035;BME280;71599;49.892;18.914;2024-02-15T09:23:36;99210.22;;;10.87;76.12
82035;BME280;71599;49.892;18.914;2024-02-15T09:28:39;99207.06;;;11.28;75.50
82035;BME280;71599;49.892;18.914;2024-02-15T09:33:40;99215.16;;;11.91;74.78
82035;BME280;71599;49.892;18.914;2024-02-15T09:38:41;99218.94;;;12.56;70.77
82035;BME280;71599;49.892;18.914;2024-02-15T09:43:43;99204.94;;;12.84;69.03
82035;BME280;71599;49.892;18.914;2024-02-15T09:48:47;99223.38;;;13.07;67.63
82035;BME280;71599;49.892;18.914;2024-02-15T09:53:50;99215.59;;;12.67;67.88
82035;BME280;71599;49.892;18.914;2024-02-15T09:58:52;99219.56;;;12.69;68.50
82035;BME280;71599;49.892;18.914;2024-02-15T10:03:53;99217.25;;;12.52;69.64
82035;BME280;71599;49.892;18.914;2024-02-15T10:09:23;99223.22;;;12.19;69.24
82035;BME280;71599;49.892;18.914;2024-02-15T10:14:27;99208.00;;;12.02;68.28
82035;BME280;71599;49.892;18.914;2024-02-15T10:19:28;99221.63;;;12.18;70.75
82035;BME280;71599;49.892;18.914;2024-02-15T10:24:29;99210.06;;;12.63;70.91
82035;BME280;71599;49.892;18.914;2024-02-15T10:29:31;99200.97;;;13.24;68.68
82035;BME280;71599;49.892;18.914;2024-02-15T10:34:33;99195.31;;;13.62;64.96
82035;BME280;71599;49.892;18.914;2024-02-15T10:39:34;99201.13;;;13.57;66.77
82035;BME280;71599;49.892;18.914;2024-02-15T10:44:37;99194.19;;;13.18;64.79
82035;BME280;71599;49.892;18.914;2024-02-15T10:49:38;99202.50;;;12.79;64.04
82035;BME280;71599;49.892;18.914;2024-02-15T10:54:47;99195.16;;;12.64;67.20
82035;BME280;71599;49.892;18.914;2024-02-15T10:59:55;99196.19;;;12.75;68.15
82035;BME280;71599;49.892;18.914;2024-02-15T11:05:01;99195.28;;;12.90;67.81
82035;BME280;71599;49.892;18.914;2024-02-15T11:10:02;99195.63;;;12.89;69.16
82035;BME280;71599;49.892;18.914;2024-02-15T11:15:07;99177.38;;;13.46;66.91
82035;BME280;71599;49.892;18.914;2024-02-15T11:20:08;99168.16;;;13.83;66.48
82035;BME280;71599;49.892;18.914;2024-02-15T11:25:09;99156.84;;;14.18;64.92
82035;BME280;71599;49.892;18.914;2024-02-15T11:30:31;99163.00;;;14.08;60.40
82035;BME280;71599;49.892;18.914;2024-02-15T11:35:32;99144.88;;;14.37;64.37
82035;BME280;71599;49.892;18.914;2024-02-15T11:41:01;99147.44;;;14.19;60.91
82035;BME280;71599;49.892;18.914;2024-02-15T11:46:04;99140.56;;;14.03;62.61
82035;BME280;71599;49.892;18.914;2024-02-15T11:51:05;99135.06;;;14.36;63.01
82035;BME280;71599;49.892;18.914;2024-02-15T11:56:06;99131.81;;;14.27;63.56
82035;BME280;71599;49.892;18.914;2024-02-15T12:01:09;99123.25;;;14.69;64.77
82035;BME280;71599;49.892;18.914;2024-02-15T12:06:10;99123.78;;;14.82;60.96
82035;BME280;71599;49.892;18.914;2024-02-15T12:11:13;99124.16;;;14.80;61.08
82035;BME280;71599;49.892;18.914;2024-02-15T12:16:16;99115.72;;;14.62;62.70
82035;BME280;71599;49.892;18.914;2024-02-15T12:21:20;99121.16;;;14.59;60.87
82035;BME280;71599;49.892;18.914;2024-02-15T12:26:23;99119.97;;;14.56;61.71
82035;BME280;71599;49.892;18.914;2024-02-15T12:31:25;99110.03;;;14.48;62.04
82035;BME280;71599;49.892;18.914;2024-02-15T12:36:26;99113.72;;;13.93;61.39
82035;BME280;71599;49.892;18.914;2024-02-15T12:41:27;99111.78;;;13.93;63.55
82035;BME280;71599;49.892;18.914;2024-02-15T12:46:30;99113.47;;;13.71;64.70
82035;BME280;71599;49.892;18.914;2024-02-15T12:51:31;99113.41;;;13.68;65.19
82035;BME280;71599;49.892;18.914;2024-02-15T12:56:32;99117.16;;;13.56;67.01
82035;BME280;71599;49.892;18.914;2024-02-15T13:01:34;99117.38;;;13.70;67.33
82035;BME280;71599;49.892;18.914;2024-02-15T13:06:35;99107.22;;;13.48;66.19
82035;BME280;71599;49.892;18.914;2024-02-15T13:11:36;99111.22;;;13.28;69.60
82035;BME280;71599;49.892;18.914;2024-02-15T13:16:38;99112.50;;;13.34;71.14
82035;BME280;71599;49.892;18.914;2024-02-15T13:21:39;99113.06;;;13.20;70.94
82035;BME280;71599;49.892;18.914;2024-02-15T13:26:40;99113.34;;;13.12;72.05
82035;BME280;71599;49.892;18.914;2024-02-15T13:31:42;99109.38;;;13.09;71.21
82035;BME280;71599;49.892;18.914;2024-02-15T13:36:43;99098.81;;;13.11;71.32
82035;BME280;71599;49.892;18.914;2024-02-15T13:41:44;99104.56;;;13.02;73.53
82035;BME280;71599;49.892;18.914;2024-02-15T13:46:47;99106.09;;;13.00;72.26
82035;BME280;71599;49.892;18.914;2024-02-15T13:51:48;99102.25;;;13.05;74.35
82035;BME280;71599;49.892;18.914;2024-02-15T13:56:49;99102.56;;;12.99;74.38
82035;BME280;71599;49.892;18.914;2024-02-15T14:01:51;99109.13;;;13.18;75.80
82035;BME280;71599;49.892;18.914;2024-02-15T14:06:53;99096.56;;;13.17;74.18
82035;BME280;71599;49.892;18.914;2024-02-15T14:11:54;99090.63;;;13.15;75.09
82035;BME280;71599;49.892;18.914;2024-02-15T14:16:57;99095.81;;;13.20;75.91
82035;BME280;71599;49.892;18.914;2024-02-15T14:21:57;99102.66;;;13.07;75.38
82035;BME280;71599;49.892;18.914;2024-02-15T14:26:58;99106.78;;;12.93;77.24
82035;BME280;71599;49.892;18.914;2024-02-15T14:32:01;99100.09;;;12.94;78.30
82035;BME280;71599;49.892;18.914;2024-02-15T14:37:02;99107.44;;;12.87;78.45
82035;BME280;71599;49.892;18.914;2024-02-15T14:42:03;99100.59;;;12.77;78.85
82035;BME280;71599;49.892;18.914;2024-02-15T14:47:06;99100.38;;;12.63;78.83
82035;BME280;71599;49.892;18.914;2024-02-15T14:52:06;99092.72;;;12.53;80.40
82035;BME280;71599;49.892;18.914;2024-02-15T14:57:07;99095.13;;;12.54;81.13
82035;BME280;71599;49.892;18.914;2024-02-15T15:02:10;99103.00;;;12.37;80.60
82035;BME280;71599;49.892;18.914;2024-02-15T15:07:11;99111.22;;;12.17;80.34
82035;BME280;71599;49.892;18.914;2024-02-15T15:12:12;99112.25;;;11.71;76.75
82035;BME280;71599;49.892;18.914;2024-02-15T15:17:14;99106.28;;;11.50;78.17
82035;BME280;71599;49.892;18.914;2024-02-15T15:22:15;99106.34;;;11.02;78.15
82035;BME280;71599;49.892;18.914;2024-02-15T15:27:16;99115.69;;;10.86;79.19
82035;BME280;71599;49.892;18.914;2024-02-15T15:32:18;99112.94;;;10.70;80.72
82035;BME280;71599;49.892;18.914;2024-02-15T15:37:19;99114.09;;;10.53;81.90
82035;BME280;71599;49.892;18.914;2024-02-15T15:42:20;99114.22;;;10.45;82.73
82035;BME280;71599;49.892;18.914;2024-02-15T15:47:22;99125.88;;;10.42;83.28
82035;BME280;71599;49.892;18.914;2024-02-15T15:52:23;99137.91;;;10.25;84.59
82035;BME280;71599;49.892;18.914;2024-02-15T15:57:24;99138.56;;;10.06;85.85
82035;BME280;71599;49.892;18.914;2024-02-15T16:02:27;99141.19;;;10.03;87.24
82035;BME280;71599;49.892;18.914;2024-02-15T16:07:27;99147.00;;;10.01;87.42
82035;BME280;71599;49.892;18.914;2024-02-15T16:12:29;99153.63;;;9.88;88.25
82035;BME280;71599;49.892;18.914;2024-02-15T16:17:32;99165.09;;;9.94;88.49
82035;BME280;71599;49.892;18.914;2024-02-15T16:22:33;99166.75;;;10.10;87.98
82035;BME280;71599;49.892;18.914;2024-02-15T16:27:34;99168.09;;;10.16;87.64
82035;BME280;71599;49.892;18.914;2024-02-15T16:32:37;99162.97;;;10.15;87.72
82035;BME280;71599;49.892;18.914;2024-02-15T16:37:38;99163.94;;;10.07;87.33
82035;BME280;71599;49.892;18.914;2024-02-15T16:42:41;99178.50;;;9.99;88.40
82035;BME280;71599;49.892;18.914;2024-02-15T16:47:44;99177.63;;;9.95;88.82
82035;BME280;71599;49.892;18.914;2024-02-15T16:52:45;99183.09;;;9.95;88.76
82035;BME280;71599;49.892;18.914;2024-02-15T16:57:45;99182.88;;;9.88;89.21
82035;BME280;71599;49.892;18.914;2024-02-15T17:02:48;99188.41;;;9.91;89.61
82035;BME280;71599;49.892;18.914;2024-02-15T17:07:49;99182.97;;;9.91;89.14
82035;BME280;71599;49.892;18.914;2024-02-15T17:12:50;99184.47;;;9.89;90.39
82035;BME280;71599;49.892;18.914;2024-02-15T17:17:53;99196.75;;;9.83;90.53
82035;BME280;71599;49.892;18.914;2024-02-15T17:22:54;99200.28;;;9.71;90.24
82035;BME280;71599;49.892;18.914;2024-02-15T17:27:55;99206.66;;;9.75;90.80
82035;BME280;71599;49.892;18.914;2024-02-15T17:32:57;99212.75;;;9.72;90.70
82035;BME280;71599;49.892;18.914;2024-02-15T17:37:58;99222.00;;;9.79;90.48
82035;BME280;71599;49.892;18.914;2024-02-15T17:42:59;99224.50;;;9.85;90.92
82035;BME280;71599;49.892;18.914;2024-02-15T17:48:01;99224.50;;;9.85;89.98
82035;BME280;71599;49.892;18.914;2024-02-15T17:53:02;99213.13;;;9.83;90.10
82035;BME280;71599;49.892;18.914;2024-02-15T17:58:03;99214.50;;;9.76;90.23
82035;BME280;71599;49.892;18.914;2024-02-15T18:03:05;99223.81;;;9.63;91.64
82035;BME280;71599;49.892;18.914;2024-02-15T18:08:06;99221.75;;;9.60;92.02
82035;BME280;71599;49.892;18.914;2024-02-15T18:13:07;99218.78;;;9.65;92.18
82035;BME280;71599;49.892;18.914;2024-02-15T18:18:10;99215.50;;;9.60;92.83
82035;BME280;71599;49.892;18.914;2024-02-15T18:23:11;99217.09;;;9.61;92.77
82035;BME280;71599;49.892;18.914;2024-02-15T18:28:12;99212.53;;;9.53;93.51
82035;BME280;71599;49.892;18.914;2024-02-15T18:33:15;99210.50;;;9.50;93.96
82035;BME280;71599;49.892;18.914;2024-02-15T18:38:16;99206.66;;;9.51;94.22
82035;BME280;71599;49.892;18.914;2024-02-15T18:43:17;99215.16;;;9.49;94.13
82035;BME280;71599;49.892;18.914;2024-02-15T18:48:19;99216.75;;;9.50;95.17
82035;BME280;71599;49.892;18.914;2024-02-15T18:53:20;99212.44;;;9.49;93.87
82035;BME280;71599;49.892;18.914;2024-02-15T18:58:21;99212.44;;;9.25;94.77
82035;BME280;71599;49.892;18.914;2024-02-15T19:03:23;99207.66;;;9.10;97.21
82035;BME280;71599;49.892;18.914;2024-02-15T19:08:24;99213.97;;;8.89;99.28
82035;BME280;71599;49.892;18.914;2024-02-15T19:13:25;99211.94;;;8.98;99.34
82035;BME280;71599;49.892;18.914;2024-02-15T19:18:28;99220.13;;;9.11;98.43
82035;BME280;71599;49.892;18.914;2024-02-15T19:23:28;99224.38;;;9.20;97.40
82035;BME280;71599;49.892;18.914;2024-02-15T19:28:29;99223.34;;;9.37;96.08
82035;BME280;71599;49.892;18.914;2024-02-15T19:33:32;99222.56;;;9.49;95.49
82035;BME280;71599;49.892;18.914;2024-02-15T19:38:33;99217.22;;;9.52;95.03
82035;BME280;71599;49.892;18.914;2024-02-15T19:43:34;99220.63;;;9.49;94.70
82035;BME280;71599;49.892;18.914;2024-02-15T19:48:41;99221.09;;;9.51;94.32
82035;BME280;71599;49.892;18.914;2024-02-15T19:53:42;99219.25;;;9.55;92.90
82035;BME280;71599;49.892;18.914;2024-02-15T19:58:43;99209.38;;;9.51;92.36
82035;BME280;71599;49.892;18.914;2024-02-15T20:03:45;99210.41;;;9.34;93.24
82035;BME280;71599;49.892;18.914;2024-02-15T20:08:46;99210.41;;;9.34;93.88
82035;BME280;71599;49.892;18.914;2024-02-15T20:13:47;99221.75;;;9.36;95.07
82035;BME280;71599;49.892;18.914;2024-02-15T20:18:49;99218.94;;;9.45;95.10
82035;BME280;71599;49.892;18.914;2024-02-15T20:23:50;99210.03;;;9.35;95.71
82035;BME280;71599;49.892;18.914;2024-02-15T20:28:51;99211.63;;;9.24;98.10
82035;BME280;71599;49.892;18.914;2024-02-15T20:33:53;99220.72;;;9.16;99.89
82035;BME280;71599;49.892;18.914;2024-02-15T20:38:54;99220.59;;;9.13;100.00
82035;BME280;71599;49.892;18.914;2024-02-15T20:43:55;99223.78;;;9.15;100.00
82035;BME280;71599;49.892;18.914;2024-02-15T20:48:57;99223.88;;;9.06;99.53
82035;BME280;71599;49.892;18.914;2024-02-15T20:53:58;99217.63;;;9.06;97.91
82035;BME280;71599;49.892;18.914;2024-02-15T20:58:59;99216.59;;;9.10;97.27
82035;BME280;71599;49.892;18.914;2024-02-15T21:04:01;99208.44;;;9.10;97.17
82035;BME280;71599;49.892;18.914;2024-02-15T21:09:02;99208.75;;;8.84;100.00
82035;BME280;71599;49.892;18.914;2024-02-15T21:14:03;99199.78;;;8.96;100.00
82035;BME280;71599;49.892;18.914;2024-02-15T21:19:05;99204.66;;;8.90;100.00
82035;BME280;71599;49.892;18.914;2024-02-15T21:24:07;99203.31;;;8.96;99.72
82035;BME280;71599;49.892;18.914;2024-02-15T21:29:07;99200.69;;;9.00;100.00
82035;BME280;71599;49.892;18.914;2024-02-15T21:34:10;99196.16;;;9.04;98.72
82035;BME280;71599;49.892;18.914;2024-02-15T21:39:11;99196.13;;;8.92;97.69
82035;BME280;71599;49.892;18.914;2024-02-15T21:44:11;99189.19;;;8.82;98.60
82035;BME280;71599;49.892;18.914;2024-02-15T21:49:14;99193.97;;;8.73;98.75
82035;BME280;71599;49.892;18.914;2024-02-15T21:54:15;99194.44;;;8.87;98.84
82035;BME280;71599;49.892;18.914;2024-02-15T21:59:15;99197.63;;;9.02;97.20
82035;BME280;71599;49.892;18.914;2024-02-15T22:04:18;99198.69;;;9.09;96.54
82035;BME280;71599;49.892;18.914;2024-02-15T22:09:19;99194.34;;;8.96;97.36
82035;BME280;71599;49.892;18.914;2024-02-15T22:14:20;99197.06;;;8.96;98.27
82035;BME280;71599;49.892;18.914;2024-02-15T22:19:22;99203.03;;;8.77;98.46
82035;BME280;71599;49.892;18.914;2024-02-15T22:24:23;99195.31;;;8.67;99.87
82035;BME280;71599;49.892;18.914;2024-02-15T22:29:24;99195.22;;;8.43;100.00
82035;BME280;71599;49.892;18.914;2024-02-15T22:34:27;99201.75;;;8.30;100.00
82035;BME280;71599;49.892;18.914;2024-02-15T22:39:28;99197.53;;;8.11;100.00
82035;BME280;71599;49.892;18.914;2024-02-15T22:44:29;99206.69;;;7.86;100.00
82035;BME280;71599;49.892;18.914;2024-02-15T22:49:32;99208.56;;;7.65;100.00
82035;BME280;71599;49.892;18.914;2024-02-15T22:54:33;99207.25;;;7.50;100.00
82035;BME280;71599;49.892;18.914;2024-02-15T22:59:33;99198.22;;;7.29;100.00
82035;BME280;71599;49.892;18.914;2024-02-15T23:04:36;99184.69;;;7.20;100.00
82035;BME280;71599;49.892;18.914;2024-02-15T23:09:37;99181.81;;;7.17;100.00
82035;BME280;71599;49.892;18.914;2024-02-15T23:14:38;99186.25;;;7.21;100.00
82035;BME280;71599;49.892;18.914;2024-02-15T23:19:40;99179.06;;;7.25;100.00
82035;BME280;71599;49.892;18.914;2024-02-15T23:24:41;99178.47;;;7.41;100.00
82035;BME280;71599;49.892;18.914;2024-02-15T23:29:42;99174.09;;;7.57;100.00
82035;BME280;71599;49.892;18.914;2024-02-15T23:34:44;99172.25;;;7.69;100.00
82035;BME280;71599;49.892;18.914;2024-02-15T23:39:45;99172.09;;;7.66;100.00
82035;BME280;71599;49.892;18.914;2024-02-15T23:44:46;99179.19;;;7.58;100.00
82035;BME280;71599;49.892;18.914;2024-02-15T23:49:48;99175.84;;;7.53;100.00
82035;BME280;71599;49.892;18.914;2024-02-15T23:54:49;99176.84;;;7.48;100.00
82035;BME280;71599;49.892;18.914;2024-02-15T23:59:50;99173.81;;;7.50;100.00
